Ithaca, NY

4:45 PM EDT on July 31, 2015 (GMT -0400)
Tompkins County | | Change Station
CLOSE
Current Station
Airport
Location: Ithaca,
Elevation: 1099 ft
Nearby Weather Stations

Elev 1099 ft 42.49 °N, 76.46 °W | Updated 49 minutes ago

Scattered Clouds
Scattered Clouds
82 °F
Feels Like 82 °F
N
9
Wind Variable Wind from WSW

Today
High -- | Low -- °F
--% Chance of Precip.
Yesterday
High -- | Low -- °F
Precip. -- in
5:56 AM 8:27 PM
Full, 100% visible
Pressure 29.84 in
Visibility 10.0 miles
Clouds Scattered Clouds 6500 ft
Heat Index 82 °F
Dew Point 58 °F
Humidity 44%
Rainfall 0.00 in
Snow Depth Not available.
UV 6 out of 12
Pollen 5.60 out of 12
Air Quality Not available.
Flu Activity Not available.
METAR KITH 311956Z 25008KT 210V280 10SM SCT065 28/14 A2986 RMK AO2 T02770144 SLP105

More Conditions Fewer Conditions

Pressure 29.84 in
Visibility 10.0 miles
Clouds Scattered Clouds 6500 ft
Heat Index 82 °F
Dew Point 58 °F
Humidity 44%
Rainfall 0.00 in
Snow Depth Not available.
UV 6 out of 12
Pollen 5.60 out of 12
Air Quality Not available.
Flu Activity Not available.
METAR KITH 311956Z 25008KT 210V280 10SM SCT065 28/14 A2986 RMK AO2 T02770144 SLP105

More Conditions Fewer Conditions

10-Day Weather Forecast

×

Almanac

Astronomy

Jul. 31, 2015 Rise Set
Actual Time
Civil Twilight
Nautical Twilight
Astronomical Twilight
Moon
Length of Visible Light
Length of Day
Tomorrow will be .
, % of the Moon is Illuminated

Today's Extremes

State Highs State Lows

Community

WunderPhotos

Upload Photos

1,842,737 photos uploaded!

WunderBlogs® & News

Nearby

Air Quality

  Air Quality AQ Index Pollutant
Not available.

Snow Depth

Station Depth Elevation

Earthquake Activity

City Distance Mag. Time & Date
Minimum magnitude displayed is 2.5.

Coastal Water Temperatures

Place Temperature

Stations

Nearby Weather Stations

Station Location Temp. Windchill Dew Point Humidity Wind Precip. Elev Updated Type